createdAt,value
2018-11-25T00:01:32.608Z,4.98
2018-11-25T00:04:00.095Z,5.13
2018-11-25T00:06:28.776Z,5.30
2018-11-25T00:08:56.253Z,4.93
2018-11-25T00:11:24.515Z,5.19
2018-11-25T00:13:51.987Z,5.44
2018-11-25T00:16:19.474Z,5.14
2018-11-25T00:18:47.019Z,5.19
2018-11-25T00:21:14.540Z,5.46
2018-11-25T00:23:42.051Z,5.51
2018-11-25T00:26:09.517Z,5.27
2018-11-25T00:28:39.510Z,5.34
2018-11-25T00:31:09.671Z,5.29
2018-11-25T01:29:29.373Z,5.52
2018-11-25T01:31:56.847Z,5.48
2018-11-25T01:34:24.346Z,5.83
2018-11-25T01:36:51.852Z,5.45
2018-11-25T01:39:19.314Z,5.54
2018-11-25T01:41:46.777Z,5.93
2018-11-25T01:44:14.268Z,5.50
2018-11-25T01:46:41.739Z,5.28
2018-11-25T01:49:09.183Z,5.62
2018-11-25T01:51:36.643Z,5.37
2018-11-25T01:54:04.095Z,5.76
2018-11-25T01:56:31.573Z,5.58
2018-11-25T01:58:59.013Z,5.16
2018-11-25T02:01:26.486Z,5.31
2018-11-25T02:03:53.952Z,5.17
2018-11-25T02:06:21.427Z,5.11
2018-11-25T02:08:51.570Z,5.37
2018-11-25T02:11:19.203Z,5.50
2018-11-25T02:13:46.689Z,5.39
2018-11-25T02:16:14.147Z,5.46
2018-11-25T02:18:41.595Z,5.54
2018-11-25T02:21:09.054Z,5.78
2018-11-25T02:23:36.512Z,5.51
2018-11-25T02:26:03.964Z,5.34
2018-11-25T02:28:31.439Z,5.26
2018-11-25T02:30:58.930Z,5.58
2018-11-25T02:33:26.411Z,5.67
2018-11-25T02:35:53.886Z,5.63
2018-11-25T02:38:21.353Z,5.62
2018-11-25T02:40:48.798Z,5.35
2018-11-25T02:43:16.282Z,5.30
2018-11-25T02:45:43.756Z,5.54
2018-11-25T02:48:11.230Z,5.79
2018-11-25T02:50:38.674Z,5.46
2018-11-25T02:53:06.143Z,5.47
2018-11-25T02:55:33.581Z,5.39
2018-11-25T02:58:01.086Z,5.22
2018-11-25T03:00:28.544Z,5.45
2018-11-25T03:02:56.003Z,5.34
2018-11-25T03:05:23.473Z,5.55
2018-11-25T03:07:50.924Z,5.59
2018-11-25T03:10:18.445Z,5.30
2018-11-25T03:12:45.871Z,5.23
2018-11-25T03:15:13.353Z,5.68
2018-11-25T03:17:40.789Z,5.83
2018-11-25T03:20:08.254Z,5.58
2018-11-25T03:22:35.712Z,5.79
2018-11-25T03:25:03.192Z,5.60
2018-11-25T03:27:30.679Z,5.71
2018-11-25T03:29:58.134Z,6.02
2018-11-25T03:32:25.566Z,6.19
2018-11-25T03:34:53.017Z,6.23
2018-11-25T03:37:20.475Z,6.29
2018-11-25T03:39:47.957Z,6.24
2018-11-25T03:42:15.409Z,6.18
2018-11-25T03:44:42.865Z,6.11
2018-11-25T03:47:10.325Z,6.17
2018-11-25T03:49:37.807Z,5.95
2018-11-25T03:52:05.274Z,5.67
2018-11-25T03:54:32.719Z,6.14
2018-11-25T03:57:00.187Z,6.22
2018-11-25T03:59:27.648Z,6.14
2018-11-25T04:01:55.143Z,6.01
2018-11-25T04:04:22.611Z,5.82
2018-11-25T04:06:50.073Z,5.69
2018-11-25T04:09:17.526Z,6.15
2018-11-25T04:11:44.981Z,6.17
2018-11-25T04:14:12.427Z,6.32
2018-11-25T04:16:39.903Z,6.44
2018-11-25T04:19:07.364Z,6.44
2018-11-25T04:21:34.824Z,6.05
2018-11-25T04:24:02.288Z,5.65
2018-11-25T04:26:29.742Z,6.16
2018-11-25T04:28:57.222Z,6.27
2018-11-25T04:31:24.680Z,5.97
2018-11-25T04:33:52.149Z,6.11
2018-11-25T04:36:19.593Z,5.74
2018-11-25T04:38:47.053Z,5.65
2018-11-25T04:41:14.507Z,5.43
2018-11-25T04:43:41.981Z,5.65
2018-11-25T04:46:09.423Z,6.06
2018-11-25T04:48:37.915Z,6.16
2018-11-25T04:51:05.442Z,6.32
2018-11-25T04:53:32.882Z,6.24
2018-11-25T04:56:00.376Z,6.29
2018-11-25T04:58:27.844Z,6.25
2018-11-25T05:00:55.333Z,6.42
2018-11-25T05:03:22.794Z,6.50
2018-11-25T05:05:50.246Z,6.54
2018-11-25T05:08:17.714Z,6.52
2018-11-25T05:10:45.162Z,6.19
2018-11-25T05:13:12.631Z,6.40
2018-11-25T05:15:40.080Z,6.12
2018-11-25T05:18:07.546Z,5.84
2018-11-25T05:20:35.032Z,6.21
2018-11-25T05:23:02.532Z,5.95
2018-11-25T05:25:30.018Z,5.84
2018-11-25T05:27:57.488Z,5.72
2018-11-25T05:30:24.949Z,5.92
2018-11-25T05:32:52.414Z,6.22
2018-11-25T05:35:19.891Z,6.33
2018-11-25T05:37:47.362Z,6.32
2018-11-25T05:40:14.872Z,6.29
2018-11-25T05:42:42.335Z,6.41
2018-11-25T05:45:09.781Z,6.45
2018-11-25T05:47:37.258Z,6.61
2018-11-25T05:50:04.702Z,6.47
2018-11-25T05:52:32.169Z,6.54
2018-11-25T05:54:59.611Z,6.58
2018-11-25T05:57:27.086Z,6.72
2018-11-25T05:59:54.523Z,6.71
2018-11-25T06:02:22.022Z,6.54
2018-11-25T06:04:49.470Z,6.67
2018-11-25T06:07:16.925Z,6.75
2018-11-25T06:09:44.388Z,6.62
2018-11-25T06:12:11.848Z,6.63
2018-11-25T06:14:39.309Z,6.70
2018-11-25T06:17:06.767Z,6.64
2018-11-25T06:19:34.231Z,6.75
2018-11-25T06:22:01.693Z,6.73
2018-11-25T06:24:29.135Z,6.75
2018-11-25T06:26:56.604Z,6.71
2018-11-25T06:29:24.062Z,6.75
2018-11-25T06:31:51.739Z,6.76
2018-11-25T06:34:19.312Z,6.77
2018-11-25T06:36:46.773Z,6.73
2018-11-25T06:39:14.236Z,6.75
2018-11-25T06:41:41.677Z,6.80
2018-11-25T06:44:09.233Z,6.75
2018-11-25T06:46:36.673Z,6.77
2018-11-25T06:49:04.180Z,6.81
2018-11-25T06:51:31.644Z,6.80
2018-11-25T06:53:59.979Z,6.76
2018-11-25T06:56:27.641Z,6.78
2018-11-25T06:58:55.025Z,6.78
2018-11-25T07:01:22.500Z,6.72
2018-11-25T07:03:49.974Z,6.75
2018-11-25T07:06:17.424Z,6.72
2018-11-25T07:08:44.905Z,6.75
2018-11-25T07:11:12.381Z,6.72
2018-11-25T07:13:39.850Z,6.64
2018-11-25T07:16:07.293Z,6.67
2018-11-25T07:18:34.759Z,6.62
2018-11-25T07:21:02.222Z,6.64
2018-11-25T07:23:29.703Z,6.62
2018-11-25T07:25:57.186Z,6.61
2018-11-25T07:28:24.658Z,6.69
2018-11-25T07:30:52.197Z,6.71
2018-11-25T07:33:19.669Z,6.72
2018-11-25T07:35:47.099Z,6.70
2018-11-25T07:38:14.569Z,6.65
2018-11-25T07:40:42.009Z,6.62
2018-11-25T07:43:09.526Z,6.65
2018-11-25T07:45:36.975Z,6.59
2018-11-25T07:48:04.465Z,6.68
2018-11-25T07:50:31.941Z,6.63
2018-11-25T07:52:59.391Z,6.63
2018-11-25T07:55:26.877Z,6.62
2018-11-25T07:57:54.363Z,6.60
2018-11-25T08:00:21.832Z,6.57
2018-11-25T08:02:49.305Z,6.58
2018-11-25T08:05:16.861Z,6.52
2018-11-25T08:07:44.314Z,6.50
2018-11-25T08:10:11.765Z,6.49
2018-11-25T08:12:39.319Z,6.53
2018-11-25T08:15:06.785Z,6.61
2018-11-25T08:17:34.318Z,6.49
2018-11-25T08:20:01.767Z,6.52
2018-11-25T08:22:29.273Z,6.58
2018-11-25T08:24:56.774Z,6.58
2018-11-25T08:27:24.252Z,6.54
2018-11-25T08:29:51.736Z,6.51
2018-11-25T08:32:19.191Z,6.54
2018-11-25T08:34:46.647Z,6.48
2018-11-25T08:37:14.089Z,6.53
2018-11-25T08:39:41.578Z,6.51
2018-11-25T08:42:09.059Z,6.54
2018-11-25T08:44:36.548Z,6.51
2018-11-25T08:47:04.031Z,6.54
2018-11-25T08:49:31.479Z,6.47
2018-11-25T08:51:58.935Z,6.51
2018-11-25T08:54:26.406Z,6.54
2018-11-25T08:56:53.866Z,6.54
2018-11-25T08:59:21.334Z,6.54
2018-11-25T09:01:48.812Z,6.58
2018-11-25T09:04:16.259Z,6.59
2018-11-25T09:06:43.717Z,6.59
2018-11-25T09:09:11.220Z,6.58
2018-11-25T09:11:38.653Z,6.65
2018-11-25T09:14:06.094Z,6.68
2018-11-25T09:16:33.577Z,6.66
2018-11-25T09:19:01.069Z,6.64
2018-11-25T09:21:28.545Z,6.61
2018-11-25T09:23:56.029Z,6.63
2018-11-25T09:26:23.546Z,6.68
2018-11-25T09:28:52.203Z,6.70
2018-11-25T09:31:18.623Z,6.74
2018-11-25T09:33:46.080Z,6.69
2018-11-25T09:36:13.594Z,6.75
2018-11-25T09:38:41.050Z,6.66
2018-11-25T09:41:08.576Z,6.72
2018-11-25T09:43:36.022Z,6.70
2018-11-25T09:46:03.489Z,6.71
2018-11-25T09:48:30.935Z,6.78
2018-11-25T09:50:58.401Z,6.62
2018-11-25T09:53:25.854Z,6.72
2018-11-25T09:55:54.118Z,6.78
2018-11-25T09:58:25.531Z,6.71
2018-11-25T10:00:49.589Z,6.69
2018-11-25T10:03:17.779Z,6.69
2018-11-25T10:05:46.581Z,6.64
2018-11-25T10:08:14.019Z,6.66
2018-11-25T10:10:41.500Z,6.64
2018-11-25T10:13:08.953Z,6.66
2018-11-25T10:15:36.461Z,6.69
2018-11-25T10:18:03.937Z,6.65
2018-11-25T10:20:31.385Z,6.68
2018-11-25T10:22:58.913Z,6.66
2018-11-25T10:25:27.559Z,6.68
2018-11-25T10:27:56.122Z,6.70
2018-11-25T10:30:23.602Z,6.62
2018-11-25T10:32:52.130Z,6.54
2018-11-25T10:35:19.620Z,6.57
2018-11-25T10:37:47.121Z,6.54
2018-11-25T10:40:15.091Z,6.47
2018-11-25T15:18:02.742Z,5.75
2018-11-25T15:20:31.597Z,5.79
2018-11-25T15:32:38.029Z,5.88
2018-11-25T15:35:06.681Z,5.90
2018-11-25T15:37:34.578Z,5.86
2018-11-25T15:40:03.727Z,5.88
2018-11-25T15:42:31.382Z,5.88
2018-11-25T15:44:58.880Z,5.85
2018-11-25T15:47:26.463Z,5.92
2018-11-25T15:49:53.973Z,5.91
2018-11-25T15:52:21.439Z,5.90
2018-11-25T15:54:48.950Z,5.86
2018-11-25T15:57:16.431Z,5.80
2018-11-25T15:59:43.971Z,5.73
2018-11-25T16:02:12.610Z,5.76
2018-11-25T16:04:40.206Z,5.83
2018-11-25T16:07:07.680Z,5.79
2018-11-25T16:09:35.253Z,5.85
2018-11-25T16:12:02.742Z,5.94
2018-11-25T16:14:30.234Z,5.93
2018-11-25T16:16:57.808Z,5.92
2018-11-25T16:19:25.267Z,5.94
2018-11-25T16:21:53.353Z,5.81
2018-11-25T16:24:20.817Z,5.81
2018-11-25T16:26:48.304Z,5.78
2018-11-25T16:29:15.790Z,5.85
2018-11-25T16:31:43.307Z,5.84
2018-11-25T16:34:10.869Z,5.87
2018-11-25T16:36:38.363Z,5.83
2018-11-25T16:39:05.804Z,5.76
2018-11-25T16:41:33.289Z,5.74
2018-11-25T16:44:00.803Z,5.78
2018-11-25T16:46:28.279Z,5.84
2018-11-25T16:48:55.778Z,5.86
2018-11-25T16:51:23.276Z,5.83
2018-11-25T16:53:50.754Z,5.88
2018-11-25T16:56:18.266Z,5.90
2018-11-25T16:58:45.792Z,5.92
2018-11-25T17:01:13.276Z,5.96
2018-11-25T17:03:40.738Z,5.92
2018-11-25T17:06:08.234Z,5.97
2018-11-25T17:08:35.705Z,6.03
2018-11-25T17:11:03.238Z,5.99
2018-11-25T17:13:30.713Z,5.95
2018-11-25T17:15:58.225Z,6.02
2018-11-25T17:18:25.763Z,6.09
2018-11-25T17:20:53.255Z,6.06
2018-11-25T17:23:20.941Z,6.10
2018-11-25T17:25:48.484Z,6.05
2018-11-25T17:28:15.970Z,6.14
2018-11-25T17:30:44.487Z,6.03
2018-11-25T17:50:14.171Z,6.14
2018-11-25T17:52:41.662Z,6.15
2018-11-25T17:55:09.142Z,6.18
2018-11-25T17:57:36.630Z,6.09
2018-11-25T18:00:04.127Z,6.11
2018-11-25T18:37:21.928Z,5.96
2018-11-25T18:39:50.288Z,5.96
2018-11-25T18:44:51.026Z,6.08
2018-11-25T18:47:18.519Z,6.01
2018-11-25T18:49:46.017Z,5.94
2018-11-25T18:52:13.517Z,5.99
2018-11-25T18:54:41.009Z,5.98
2018-11-25T18:57:08.469Z,6.07
2018-11-25T18:59:35.941Z,6.02
2018-11-25T19:02:03.420Z,6.03
2018-11-25T19:04:31.029Z,6.07
2018-11-25T19:06:58.486Z,6.00
2018-11-25T19:09:25.924Z,6.02
2018-11-25T19:11:53.410Z,6.00
2018-11-25T19:14:20.851Z,6.05
2018-11-25T19:16:48.322Z,6.05
2018-11-25T19:19:15.777Z,6.09
2018-11-25T19:21:43.259Z,6.08
2018-11-25T19:24:10.728Z,6.06
2018-11-25T19:26:38.910Z,6.17
2018-11-25T19:29:06.467Z,6.22
2018-11-25T19:31:33.899Z,6.22
2018-11-25T19:34:01.464Z,6.26
2018-11-25T19:36:28.928Z,6.24
2018-11-25T19:38:56.387Z,6.20
2018-11-25T19:41:23.859Z,6.22
2018-11-25T19:43:51.349Z,6.12
2018-11-25T19:46:18.809Z,6.24
2018-11-25T19:48:46.375Z,6.25
2018-11-25T19:51:17.648Z,6.22
2018-11-25T19:53:41.529Z,6.22
2018-11-25T19:56:09.013Z,6.16
2018-11-25T19:58:36.522Z,6.12
2018-11-25T20:01:03.957Z,6.17
2018-11-25T20:03:31.427Z,6.23
2018-11-25T20:05:58.918Z,6.30
2018-11-25T20:08:26.402Z,6.28
2018-11-25T20:10:54.234Z,6.33
2018-11-25T20:13:24.094Z,6.32
2018-11-25T20:15:53.344Z,6.37
2018-11-25T20:18:23.211Z,6.33
2018-11-25T20:20:52.026Z,6.22
2018-11-25T20:23:20.503Z,6.30
2018-11-25T20:25:53.243Z,6.20
2018-11-25T20:28:21.551Z,6.30
2018-11-25T20:30:50.246Z,6.34
2018-11-25T20:33:34.811Z,6.27
2018-11-25T20:36:03.179Z,6.31
2018-11-25T20:38:35.164Z,6.34
2018-11-25T20:41:03.862Z,6.34
2018-11-25T20:43:36.378Z,6.41
2018-11-25T20:46:06.804Z,6.37
2018-11-25T20:48:35.205Z,6.38
2018-11-25T20:51:04.766Z,6.38
2018-11-25T20:53:47.901Z,6.42
2018-11-25T20:56:16.585Z,6.43
2018-11-25T20:58:45.108Z,6.43
2018-11-25T21:01:13.282Z,6.40
2018-11-25T21:03:41.673Z,6.46
2018-11-25T21:06:10.167Z,6.46
2018-11-25T21:08:37.676Z,6.46
2018-11-25T21:11:09.707Z,6.54
2018-11-25T21:13:39.871Z,6.46
2018-11-25T21:16:07.407Z,6.48
2018-11-25T21:18:37.429Z,6.50
2018-11-25T21:21:04.995Z,6.52
2018-11-25T21:23:34.510Z,6.51
2018-11-25T21:26:03.685Z,6.53
2018-11-25T21:28:32.705Z,6.53
2018-11-25T21:31:04.311Z,6.56
2018-11-25T21:33:32.322Z,6.60
2018-11-25T21:36:03.609Z,6.57
2018-11-25T21:38:32.846Z,6.58
2018-11-25T21:41:01.374Z,6.64
2018-11-25T21:43:29.221Z,6.63
2018-11-25T21:45:57.533Z,6.66
2018-11-25T21:48:27.714Z,6.62
2018-11-25T21:50:55.266Z,6.66
2018-11-25T21:53:22.769Z,6.71
2018-11-25T21:58:17.852Z,6.63
2018-11-25T22:00:46.932Z,6.67
2018-11-25T22:03:15.370Z,6.68
2018-11-25T22:05:43.660Z,6.63
2018-11-25T22:08:11.237Z,6.67
2018-11-25T22:10:40.583Z,6.62
2018-11-25T22:13:09.002Z,6.58
2018-11-25T22:15:36.536Z,6.56
2018-11-25T22:18:04.363Z,6.59
2018-11-25T22:20:33.853Z,6.60
2018-11-25T22:23:02.379Z,6.56
2018-11-25T22:25:29.885Z,6.63
2018-11-25T22:27:58.356Z,6.65
2018-11-25T22:30:28.223Z,6.62
2018-11-25T22:32:55.752Z,6.58
2018-11-25T22:35:23.266Z,6.64
2018-11-25T22:37:50.787Z,6.65
2018-11-25T22:40:18.302Z,6.73
2018-11-25T22:42:45.776Z,6.63
2018-11-25T23:02:22.846Z,6.63
2018-11-25T23:05:12.829Z,6.64
2018-11-25T23:07:40.309Z,6.64
2018-11-25T23:10:07.789Z,6.67
2018-11-25T23:12:35.257Z,6.69
2018-11-25T23:15:02.722Z,6.73
2018-11-25T23:17:30.205Z,6.71
2018-11-25T23:19:57.648Z,6.74
2018-11-25T23:22:25.153Z,6.75
2018-11-25T23:24:52.602Z,6.72
2018-11-25T23:27:20.073Z,6.76
2018-11-25T23:29:47.514Z,6.65
2018-11-25T23:32:14.997Z,6.65
2018-11-25T23:34:42.469Z,6.66
2018-11-25T23:37:09.959Z,6.69
2018-11-25T23:39:38.603Z,6.68
2018-11-25T23:42:06.100Z,6.69
2018-11-25T23:44:33.580Z,6.76
2018-11-25T23:47:01.032Z,6.68
2018-11-25T23:49:28.505Z,6.69
2018-11-25T23:51:55.978Z,6.70
2018-11-25T23:54:23.470Z,6.65
2018-11-25T23:56:50.936Z,6.67
2018-11-25T23:59:18.394Z,6.68
